To NAV CANADA Home Page Login to a new session Search on AWWS site Feedback and Comments Disclaimer Vers la page française équivalente Tips FAQ What's new on the site To the Forecasts and Observations / NOTAM section To "File a Flight Plan" website Publications and other links Update of the User's profile FIC Telephone Numbers My Weather Data Folder Route Weather Data Regional Weather Data Local Weather Data To the Forecasts and Observations / NOTAM section
Request Generated 06/26/2017 at 22:25:21 UTC . Weather information available at that time is displayed.

METAR/TAF

SAINT JOHN/NB    

METAR CYSJ 262200Z 21007KT 15SM SCT090 19/12 A2988 RMK AC4 SLP120
DENSITY ALT 1000FT=
METAR CYSJ 262100Z 20013KT 15SM BKN078TCU 20/11 A2986 RMK TCU5 SLP116
DENSITY ALT 1100FT=
METAR CYSJ 262000Z 21013G19KT 15SM BKN069TCU 22/11 A2986 RMK TCU5
SLP113 DENSITY ALT 1300FT=

TAF CYSJ 261739Z 2618/2706 22012G22KT P6SM BKN060 TEMPO 2618/2620
P6SM -SHRA
FM262000 22010G20KT P6SM SCT060
BECMG 2622/2624 VRB03KT
RMK NXT FCST BY 270000Z=
Your time UTC time
Weather data provided by Environment Canada and NAV CANADA